El Paso, TX (88549)

7:19 PM MST on February 06, 2016 (GMT -0700)
Shock | | Change Station
CLOSE
Current Station
Personal Weather Station
Location: El Paso, TX
Elevation: 3924 ft
Nearby Weather Stations

Elev 3924 ft 31.76 °N, 106.33 °W | Updated 9 minutes ago

Clear
Clear
46.2 °F
Feels Like 46 °F
N
0.0
Wind Variable Wind from South

Today
High -- | Low -- °F
--% Chance of Precip.
Yesterday
High -- | Low -- °F
Precip. -- in
Pressure 30.30 in
Visibility 10.0 miles
Clouds Scattered Clouds 25000 ft
Windchill 46 °F
Dew Point 7 °F
Humidity 20%
Rainfall 0.00 in
Snow Depth Not available.
6:55 AM 5:43 PM
Waning Crescent, 3% visible
METAR KELP 070151Z 18003KT 10SM SCT250 09/M16 A3031 RMK AO2 SLP261 T00891156
Pressure 30.30 in
Visibility 10.0 miles
Clouds Scattered Clouds 25000 ft
Windchill 46 °F
Dew Point 7 °F
Humidity 20%
Rainfall 0.00 in
Snow Depth Not available.
6:55 AM 5:43 PM
Waning Crescent, 3% visible
METAR KELP 070151Z 18003KT 10SM SCT250 09/M16 A3031 RMK AO2 SLP261 T00891156

10-Day Weather Forecast

Almanac

Astronomy

Feb. 06, 2016 Rise Set
Actual Time
Civil Twilight
Nautical Twilight
Astronomical Twilight
Moon
Length of Visible Light
Length of Day
Tomorrow will be .
, % of the Moon is Illuminated

Today's Extremes

State Highs State Lows

Community

WunderPhotos

Upload Photos

1,891,138 photos uploaded!

WunderBlog® & News

Nearby

Air Quality

  Air Quality AQ Index Pollutant
Not available.

Snow Depth

Station Depth Elevation

Earthquake Activity

City Distance Mag. Time & Date
Minimum magnitude displayed is 2.5.

Coastal Water Temperatures

Place Temperature

Stations

Nearby Weather Stations

Station Location Temp. Windchill Dew Point Humidity Wind Precip. Elev Updated Type
                   

Watches & Warnings

There are currently no watches in effect.